createdAt,value
2023-02-12T00:02:12.215Z,47.42
2023-02-12T00:04:41.266Z,46.17
2023-02-12T00:07:13.517Z,48.25
2023-02-12T00:09:42.591Z,47.75
2023-02-12T00:12:11.785Z,51.15
2023-02-12T00:14:40.624Z,65.40
2023-02-12T00:17:09.568Z,64.25
2023-02-12T00:19:38.531Z,60.13
2023-02-12T00:22:07.311Z,62.97
2023-02-12T00:24:37.621Z,73.07
2023-02-12T00:27:06.522Z,78.05
2023-02-12T00:29:35.316Z,79.88
2023-02-12T00:32:04.131Z,70.95
2023-02-12T00:34:33.229Z,64.65
2023-02-12T00:37:02.541Z,56.72
2023-02-12T00:39:31.423Z,53.65
2023-02-12T00:42:01.700Z,50.58
2023-02-12T00:44:30.645Z,48.45
2023-02-12T00:47:02.538Z,46.88
2023-02-12T00:49:34.234Z,42.22
2023-02-12T00:52:04.056Z,43.15
2023-02-12T00:54:33.525Z,39.03
2023-02-12T00:57:04.010Z,41.30
2023-02-12T00:59:33.126Z,42.97
2023-02-12T01:02:01.897Z,60.15
2023-02-12T01:04:30.729Z,46.20
2023-02-12T01:07:18.244Z,41.88
2023-02-12T01:09:47.329Z,42.25
2023-02-12T01:12:17.624Z,44.25
2023-02-12T01:14:46.429Z,44.03
2023-02-12T01:17:15.584Z,45.90
2023-02-12T01:19:46.456Z,46.33
2023-02-12T01:22:15.257Z,46.88
2023-02-12T01:24:45.186Z,48.05
2023-02-12T01:27:14.106Z,47.25
2023-02-12T01:29:44.919Z,48.25
2023-02-12T01:32:13.896Z,50.13
2023-02-12T01:35:01.104Z,50.10
2023-02-12T01:37:29.918Z,48.67
2023-02-12T01:39:58.918Z,48.90
2023-02-12T01:42:28.690Z,50.25
2023-02-12T01:45:47.282Z,53.05
2023-02-12T01:48:18.608Z,59.45
2023-02-12T01:50:49.431Z,59.75
2023-02-12T01:53:21.280Z,57.63
2023-02-12T01:55:52.291Z,60.03
2023-02-12T01:58:21.655Z,57.10
2023-02-12T02:00:52.070Z,56.53
2023-02-12T02:03:21.481Z,52.80
2023-02-12T02:05:57.978Z,49.00
2023-02-12T02:08:28.329Z,46.92
2023-02-12T02:10:57.812Z,48.15
2023-02-12T02:13:43.985Z,49.90
2023-02-12T02:16:24.666Z,48.55
2023-02-12T02:19:00.273Z,47.92
2023-02-12T02:21:53.279Z,44.25
2023-02-12T02:24:55.105Z,49.40
2023-02-12T02:27:42.098Z,49.97
2023-02-12T02:30:31.430Z,48.25
2023-02-12T02:33:11.280Z,51.05
2023-02-12T02:35:48.489Z,49.17
2023-02-12T02:38:27.244Z,49.58
2023-02-12T02:41:03.625Z,48.95
2023-02-12T02:43:36.862Z,48.00
2023-02-12T02:46:12.837Z,47.58
2023-02-12T02:48:47.846Z,52.92
2023-02-12T02:51:21.603Z,53.25
2023-02-12T02:53:55.339Z,50.20
2023-02-12T02:56:25.645Z,50.85
2023-02-12T02:58:58.382Z,50.30
2023-02-12T03:01:32.759Z,49.05
2023-02-12T03:04:06.629Z,52.08
2023-02-12T03:06:40.621Z,47.42
2023-02-12T03:09:32.570Z,47.53
2023-02-12T03:12:05.875Z,43.92
2023-02-12T03:14:39.953Z,45.05
2023-02-12T03:17:15.020Z,47.20
2023-02-12T03:19:47.099Z,46.10
2023-02-12T03:22:19.898Z,45.00
2023-02-12T03:24:53.301Z,46.53
2023-02-12T03:27:27.341Z,44.63
2023-02-12T03:29:56.469Z,48.47
2023-02-12T03:32:35.235Z,59.47
2023-02-12T03:35:11.855Z,51.55
2023-02-12T03:37:45.313Z,55.00
2023-02-12T03:40:20.652Z,55.05
2023-02-12T03:42:59.256Z,55.47
2023-02-12T03:45:40.244Z,47.80
2023-02-12T03:48:15.902Z,45.83
2023-02-12T03:50:50.275Z,47.05
2023-02-12T03:53:19.284Z,49.97
2023-02-12T03:55:52.847Z,45.63
2023-02-12T03:58:25.896Z,46.85
2023-02-12T04:00:55.221Z,67.13
2023-02-12T04:03:26.589Z,59.42
2023-02-12T04:05:55.767Z,66.43
2023-02-12T04:08:27.463Z,51.42
2023-02-12T04:11:05.402Z,49.08
2023-02-12T04:13:43.708Z,47.65
2023-02-12T04:16:24.021Z,47.88
2023-02-12T04:18:55.545Z,50.00
2023-02-12T04:21:48.697Z,47.80
2023-02-12T04:24:25.150Z,57.75
2023-02-12T04:26:59.614Z,52.10
2023-02-12T04:29:34.095Z,55.97
2023-02-12T04:32:08.394Z,52.58
2023-02-12T04:34:46.572Z,49.80
2023-02-12T04:37:20.640Z,54.88
2023-02-12T04:39:51.372Z,50.40
2023-02-12T04:42:20.526Z,55.53
2023-02-12T04:44:49.321Z,56.60
2023-02-12T04:47:18.767Z,58.55
2023-02-12T04:49:49.208Z,54.17
2023-02-12T04:52:18.128Z,52.50
2023-02-12T04:54:47.026Z,58.90
2023-02-12T04:57:15.823Z,53.40
2023-02-12T04:59:44.624Z,60.22
2023-02-12T05:02:13.497Z,52.80
2023-02-12T05:04:42.446Z,48.80
2023-02-12T05:07:14.236Z,52.05
2023-02-12T05:09:43.183Z,51.08
2023-02-12T05:12:12.055Z,53.97
2023-02-12T05:14:40.968Z,56.92
2023-02-12T05:17:09.952Z,52.28
2023-02-12T05:19:38.696Z,55.55
2023-02-12T05:22:07.555Z,52.70
2023-02-12T05:24:39.169Z,54.40
2023-02-12T05:27:09.308Z,53.25
2023-02-12T05:29:38.574Z,57.78
2023-02-12T05:32:08.083Z,49.38
2023-02-12T05:34:37.325Z,55.00
2023-02-12T05:37:06.091Z,51.55
2023-02-12T05:39:34.908Z,61.80
2023-02-12T05:42:05.447Z,56.88
2023-02-12T05:44:34.421Z,53.67
2023-02-12T05:47:03.249Z,59.28
2023-02-12T05:49:36.076Z,52.70
2023-02-12T05:52:05.179Z,90.93
2023-02-12T05:54:34.042Z,48.80
2023-02-12T05:57:02.908Z,46.67
2023-02-12T05:59:33.944Z,47.20
2023-02-12T06:02:02.937Z,45.72
2023-02-12T06:04:32.624Z,52.10
2023-02-12T06:07:02.531Z,62.55
2023-02-12T06:09:31.397Z,47.28
2023-02-12T06:12:00.235Z,47.60
2023-02-12T06:14:31.748Z,44.90
2023-02-12T06:17:02.434Z,47.60
2023-02-12T06:19:31.374Z,58.13
2023-02-12T06:22:00.258Z,51.00
2023-02-12T06:24:29.132Z,46.10
2023-02-12T06:26:58.034Z,46.63
2023-02-12T06:29:26.951Z,45.80
2023-02-12T06:31:56.106Z,54.57
2023-02-12T06:34:27.272Z,60.13
2023-02-12T06:36:56.288Z,48.20
2023-02-12T06:39:25.203Z,57.40
2023-02-12T06:41:54.674Z,60.87
2023-02-12T06:44:23.787Z,169.53
2023-02-12T06:46:52.627Z,59.40
2023-02-12T06:49:21.416Z,50.97
2023-02-12T06:51:51.868Z,67.00
2023-02-12T06:54:20.857Z,62.57
2023-02-12T06:56:49.723Z,47.87
2023-02-12T06:59:19.047Z,47.97
2023-02-12T07:01:48.121Z,45.67
2023-02-12T07:04:17.056Z,58.67
2023-02-12T07:06:45.973Z,68.83
2023-02-12T07:09:16.207Z,41.73
2023-02-12T07:11:45.155Z,42.03
2023-02-12T07:14:16.939Z,44.37
2023-02-12T07:16:45.963Z,37.27
2023-02-12T07:19:18.419Z,70.70
2023-02-12T07:21:47.416Z,43.17
2023-02-12T07:24:22.648Z,41.43
2023-02-12T07:26:51.497Z,39.93
2023-02-12T07:29:38.963Z,38.33
2023-02-12T07:32:08.296Z,67.80
2023-02-12T07:34:55.660Z,42.10
2023-02-12T07:37:24.603Z,50.67
2023-02-12T07:39:54.922Z,38.30
2023-02-12T07:42:23.755Z,44.50
2023-02-12T07:44:58.574Z,61.13
2023-02-12T07:47:28.569Z,68.40
2023-02-12T07:49:57.450Z,47.90
2023-02-12T07:52:26.378Z,34.47
2023-02-12T07:54:56.622Z,37.67
2023-02-12T07:57:25.873Z,41.67
2023-02-12T07:59:54.767Z,38.70
2023-02-12T08:02:25.880Z,40.47
2023-02-12T08:05:03.522Z,66.57
2023-02-12T08:07:32.511Z,42.43
2023-02-12T08:10:03.984Z,43.50
2023-02-12T08:12:32.881Z,36.40
2023-02-12T08:15:01.888Z,39.30
2023-02-12T08:17:30.819Z,29.23
2023-02-12T08:19:59.649Z,32.30
2023-02-12T08:22:28.712Z,33.80
2023-02-12T08:24:57.792Z,54.53
2023-02-12T08:27:28.501Z,35.50
2023-02-12T08:29:57.536Z,40.40
2023-02-12T08:32:26.380Z,40.53
2023-02-12T08:34:55.494Z,37.47
2023-02-12T08:37:24.320Z,41.30
2023-02-12T08:39:53.169Z,37.50
2023-02-12T08:42:23.108Z,43.00
2023-02-12T08:44:53.437Z,34.50
2023-02-12T08:47:22.388Z,32.17
2023-02-12T08:49:51.206Z,34.83
2023-02-12T08:52:20.238Z,35.87
2023-02-12T08:54:49.078Z,41.03
2023-02-12T08:57:17.926Z,43.30
2023-02-12T08:59:47.001Z,39.23
2023-02-12T09:02:17.344Z,47.03
2023-02-12T09:04:46.526Z,30.17
2023-02-12T09:07:16.031Z,23.93
2023-02-12T09:09:45.088Z,31.87
2023-02-12T09:12:14.069Z,31.43
2023-02-12T09:14:43.119Z,46.63
2023-02-12T09:17:12.424Z,26.10
2023-02-12T09:19:43.072Z,25.40
2023-02-12T09:22:12.109Z,29.63
2023-02-12T09:24:41.469Z,27.00
2023-02-12T09:27:10.414Z,32.17
2023-02-12T09:29:39.631Z,33.50
2023-02-12T09:32:09.539Z,22.70
2023-02-12T09:34:38.846Z,21.47
2023-02-12T09:37:09.628Z,28.93
2023-02-12T09:39:39.017Z,43.77
2023-02-12T09:42:20.609Z,26.87
2023-02-12T09:45:00.900Z,42.50
2023-02-12T09:47:37.648Z,46.23
2023-02-12T09:50:37.603Z,28.73
2023-02-12T09:53:13.854Z,29.23
2023-02-12T09:55:42.979Z,42.50
2023-02-12T09:58:17.841Z,26.80
2023-02-12T10:00:46.783Z,30.97
2023-02-12T10:03:17.876Z,31.70
2023-02-12T10:05:52.689Z,43.53
2023-02-12T10:08:58.966Z,25.53
2023-02-12T10:11:47.403Z,20.17
2023-02-12T10:14:42.057Z,30.23
2023-02-12T10:17:20.600Z,35.07
2023-02-12T10:20:04.381Z,41.27
2023-02-12T10:22:51.349Z,37.10
2023-02-12T10:25:33.121Z,22.87
2023-02-12T10:28:09.171Z,23.30
2023-02-12T10:30:44.464Z,19.40
2023-02-12T10:33:18.713Z,35.07
2023-02-12T10:35:52.536Z,19.87
2023-02-12T10:38:26.811Z,105.90
2023-02-12T10:41:18.607Z,26.63
2023-02-12T10:43:48.752Z,28.03
2023-02-12T10:46:18.981Z,27.50
2023-02-12T10:48:54.213Z,24.70
2023-02-12T10:51:39.779Z,22.37
2023-02-12T10:54:43.197Z,22.50
2023-02-12T10:57:18.517Z,22.87
2023-02-12T10:59:48.493Z,28.80
2023-02-12T11:02:27.017Z,21.67
2023-02-12T11:04:58.266Z,19.43
2023-02-12T11:07:28.386Z,21.77
2023-02-12T11:09:58.611Z,20.57
2023-02-12T11:12:33.512Z,25.00
2023-02-12T11:15:06.654Z,21.40
2023-02-12T11:17:39.287Z,37.67
2023-02-12T11:20:25.425Z,30.67
2023-02-12T11:22:58.264Z,25.07
2023-02-12T11:25:29.512Z,38.93
2023-02-12T11:28:05.946Z,59.50
2023-02-12T11:30:35.484Z,30.93
2023-02-12T11:33:24.447Z,26.30
2023-02-12T11:35:56.456Z,24.40
2023-02-12T11:38:29.176Z,23.97
2023-02-12T11:41:01.784Z,30.23
2023-02-12T11:43:37.346Z,27.07
2023-02-12T11:46:08.872Z,56.37
2023-02-12T11:48:41.133Z,32.13
2023-02-12T11:51:19.715Z,26.17
2023-02-12T11:53:51.982Z,25.77
2023-02-12T11:56:21.944Z,26.33
2023-02-12T11:58:54.120Z,27.97
2023-02-12T12:01:26.671Z,32.73
2023-02-12T12:04:03.976Z,25.80
2023-02-12T12:06:36.424Z,59.57
2023-02-12T12:09:11.761Z,53.53
2023-02-12T12:11:47.836Z,19.50
2023-02-12T12:14:23.898Z,23.03
2023-02-12T12:17:16.850Z,40.77
2023-02-12T12:19:58.434Z,25.77
2023-02-12T12:22:48.472Z,26.60
2023-02-12T12:25:25.851Z,23.83
2023-02-12T12:28:13.605Z,35.40
2023-02-12T12:31:03.883Z,21.57
2023-02-12T12:33:39.440Z,38.87
2023-02-12T12:36:44.103Z,33.03
2023-02-12T12:39:20.801Z,27.37
2023-02-12T12:42:28.668Z,58.93
2023-02-12T12:45:19.630Z,36.87
2023-02-12T12:48:04.057Z,23.50
2023-02-12T12:50:51.905Z,24.17
2023-02-12T12:53:36.288Z,34.57
2023-02-12T12:56:27.895Z,50.33
2023-02-12T12:59:27.752Z,25.70
2023-02-12T13:02:35.166Z,32.80
2023-02-12T13:05:55.124Z,29.67
2023-02-12T13:08:38.264Z,30.37
2023-02-12T13:11:17.759Z,36.43
2023-02-12T13:13:50.279Z,37.87
2023-02-12T13:16:27.917Z,27.57
2023-02-12T13:19:03.454Z,34.53
2023-02-12T13:21:45.953Z,34.53
2023-02-12T13:24:26.013Z,30.10
2023-02-12T13:26:58.646Z,42.63
2023-02-12T13:29:31.671Z,28.57
2023-02-12T13:32:06.780Z,21.27
2023-02-12T13:34:52.351Z,12.93
2023-02-12T13:37:28.867Z,11.47
2023-02-12T13:40:04.051Z,18.07
2023-02-12T13:42:44.696Z,18.20
2023-02-12T13:45:28.735Z,33.07
2023-02-12T13:48:15.445Z,11.33
2023-02-12T13:50:55.554Z,16.93
2023-02-12T13:53:37.286Z,12.43
2023-02-12T13:56:13.645Z,15.27
2023-02-12T13:58:50.437Z,15.80
2023-02-12T14:01:46.932Z,17.10
2023-02-12T14:04:25.020Z,14.80
2023-02-12T14:07:01.017Z,20.17
2023-02-12T14:09:40.758Z,20.23
2023-02-12T14:12:35.352Z,27.87
2023-02-12T14:15:09.338Z,23.73
2023-02-12T14:17:55.440Z,33.53
2023-02-12T14:20:28.930Z,22.77
2023-02-12T14:23:28.692Z,31.03
2023-02-12T14:26:14.831Z,19.27
2023-02-12T14:29:02.854Z,26.13
2023-02-12T14:31:36.381Z,18.17
2023-02-12T14:34:54.305Z,20.00
2023-02-12T14:37:42.418Z,19.23
2023-02-12T14:40:53.261Z,25.00
2023-02-12T14:43:56.444Z,30.67
2023-02-12T14:46:48.306Z,40.10
2023-02-12T14:49:37.195Z,23.13
2023-02-12T14:52:15.357Z,38.50
2023-02-12T14:54:47.842Z,27.77
2023-02-12T14:57:25.971Z,23.03
2023-02-12T14:59:59.680Z,29.37
2023-02-12T15:02:31.091Z,28.93
2023-02-12T15:05:04.207Z,26.70
2023-02-12T15:07:42.555Z,25.13
2023-02-12T15:10:19.040Z,24.17
2023-02-12T15:12:53.568Z,29.03
2023-02-12T15:15:31.056Z,26.87
2023-02-12T15:18:04.407Z,29.20
2023-02-12T15:20:44.997Z,42.23
2023-02-12T15:23:33.306Z,39.10
2023-02-12T15:26:02.988Z,38.13
2023-02-12T15:28:37.711Z,31.23
2023-02-12T15:31:11.145Z,37.90
2023-02-12T15:33:46.438Z,38.07
2023-02-12T15:36:21.720Z,46.60
2023-02-12T15:38:53.357Z,36.07
2023-02-12T15:41:28.709Z,40.73
2023-02-12T15:43:59.362Z,39.47
2023-02-12T15:46:30.005Z,46.87
2023-02-12T15:48:59.719Z,43.37
2023-02-12T15:51:35.022Z,73.57
2023-02-12T15:54:08.491Z,49.10
2023-02-12T15:56:42.145Z,32.27
2023-02-12T15:59:21.361Z,74.60
2023-02-12T16:02:00.748Z,69.07
2023-02-12T16:04:32.376Z,50.93
2023-02-12T16:07:01.531Z,130.17
2023-02-12T16:09:33.826Z,103.13
2023-02-12T16:12:04.950Z,79.63
2023-02-12T16:14:43.728Z,98.63
2023-02-12T16:17:28.047Z,67.90
2023-02-12T16:19:58.952Z,101.23
2023-02-12T16:22:34.363Z,93.63
2023-02-12T16:25:05.554Z,101.70
2023-02-12T16:27:36.382Z,69.70
2023-02-12T16:30:24.400Z,49.33
2023-02-12T16:32:55.725Z,40.43
2023-02-12T16:35:29.028Z,42.87
2023-02-12T16:38:04.297Z,31.67
2023-02-12T16:40:38.833Z,72.70
2023-02-12T16:43:26.374Z,61.47
2023-02-12T16:46:06.554Z,45.97
2023-02-12T16:48:42.568Z,45.47
2023-02-12T16:51:28.444Z,41.60
2023-02-12T16:54:00.327Z,46.17
2023-02-12T16:56:32.996Z,42.63
2023-02-12T16:59:03.307Z,77.13
2023-02-12T17:01:34.477Z,50.77
2023-02-12T17:04:08.508Z,42.40
2023-02-12T17:06:37.476Z,33.97
2023-02-12T17:09:06.345Z,37.27
2023-02-12T17:11:35.158Z,35.77
2023-02-12T17:14:04.299Z,40.90
2023-02-12T17:16:33.150Z,35.20
2023-02-12T17:19:02.240Z,32.93
2023-02-12T17:21:38.270Z,38.37
2023-02-12T17:24:07.938Z,34.77
2023-02-12T17:26:38.116Z,38.33
2023-02-12T17:29:06.946Z,41.00
2023-02-12T17:31:36.841Z,61.37
2023-02-12T17:34:07.229Z,47.20
2023-02-12T17:36:37.984Z,43.80
2023-02-12T17:39:09.288Z,40.47
2023-02-12T17:41:38.386Z,47.80
2023-02-12T17:44:07.538Z,37.97
2023-02-12T17:46:36.676Z,46.73
2023-02-12T17:49:06.338Z,37.63
2023-02-12T17:51:43.220Z,38.00
2023-02-12T17:54:14.146Z,35.83
2023-02-12T17:56:43.968Z,30.63
2023-02-12T17:59:13.240Z,29.90
2023-02-12T18:01:42.536Z,31.63
2023-02-12T18:04:11.513Z,35.63
2023-02-12T18:06:41.958Z,37.67
2023-02-12T18:09:10.922Z,32.27
2023-02-12T18:11:42.403Z,44.50
2023-02-12T18:14:13.240Z,40.10
2023-02-12T18:16:42.372Z,35.20
2023-02-12T18:19:11.305Z,37.73
2023-02-12T18:21:41.826Z,53.77
2023-02-12T18:24:10.867Z,41.97
2023-02-12T18:26:39.650Z,35.37
2023-02-12T18:29:08.623Z,38.07
2023-02-12T18:31:38.118Z,48.20
2023-02-12T18:34:07.712Z,38.07
2023-02-12T18:36:36.563Z,36.83
2023-02-12T18:39:06.991Z,40.50
2023-02-12T18:41:36.726Z,68.07
2023-02-12T18:44:05.877Z,49.30
2023-02-12T18:46:34.806Z,36.50
2023-02-12T18:49:04.404Z,47.40
2023-02-12T18:51:36.806Z,42.87
2023-02-12T18:54:13.398Z,45.47
2023-02-12T18:56:44.403Z,49.80
2023-02-12T18:59:15.933Z,46.83
2023-02-12T19:01:45.216Z,36.87
2023-02-12T19:04:16.212Z,40.13
2023-02-12T19:06:48.359Z,45.37
2023-02-12T19:09:20.563Z,94.33
2023-02-12T19:11:51.102Z,87.83
2023-02-12T19:14:21.877Z,63.40
2023-02-12T19:16:51.183Z,66.30
2023-02-12T19:19:21.557Z,45.97
2023-02-12T19:21:51.669Z,47.53
2023-02-12T19:24:22.142Z,61.10
2023-02-12T19:27:09.899Z,49.60
2023-02-12T19:29:42.701Z,46.35
2023-02-12T19:32:12.709Z,51.15
2023-02-12T19:34:43.059Z,47.33
2023-02-12T19:37:19.909Z,73.78
2023-02-12T19:40:01.305Z,60.45
2023-02-12T19:42:31.908Z,50.63
2023-02-12T19:45:01.235Z,54.90
2023-02-12T19:47:30.092Z,48.83
2023-02-12T19:49:58.949Z,47.65
2023-02-12T19:52:28.033Z,49.17
2023-02-12T19:54:58.855Z,45.38
2023-02-12T19:57:28.093Z,42.35
2023-02-12T19:59:56.874Z,43.45
2023-02-12T20:02:25.774Z,41.47
2023-02-12T20:04:55.026Z,46.15
2023-02-12T20:07:23.884Z,40.92
2023-02-12T20:09:53.086Z,42.22
2023-02-12T20:12:23.563Z,43.42
2023-02-12T20:14:52.643Z,60.42
2023-02-12T20:17:21.562Z,38.80
2023-02-12T20:19:50.483Z,34.97
2023-02-12T20:22:19.408Z,50.40
2023-02-12T20:24:48.893Z,38.53
2023-02-12T20:27:18.512Z,48.10
2023-02-12T20:29:49.197Z,35.28
2023-02-12T20:32:18.192Z,40.97
2023-02-12T20:34:51.081Z,35.45
2023-02-12T20:37:20.299Z,43.58
2023-02-12T20:39:49.459Z,34.45
2023-02-12T20:42:18.386Z,37.95
2023-02-12T20:44:48.819Z,41.70
2023-02-12T20:47:17.816Z,40.42
2023-02-12T20:49:46.783Z,43.53
2023-02-12T20:52:15.700Z,47.10
2023-02-12T20:54:45.489Z,45.13
2023-02-12T20:57:35.004Z,46.45
2023-02-12T21:00:06.509Z,39.08
2023-02-12T21:02:35.442Z,41.75
2023-02-12T21:05:04.808Z,42.08
2023-02-12T21:07:33.597Z,44.85
2023-02-12T21:10:02.557Z,40.03
2023-02-12T21:12:31.496Z,37.70
2023-02-12T21:15:00.319Z,36.78
2023-02-12T21:17:30.557Z,40.15
2023-02-12T21:19:59.473Z,39.53
2023-02-12T21:22:28.858Z,55.78
2023-02-12T21:24:57.711Z,62.60
2023-02-12T21:27:29.628Z,47.95
2023-02-12T21:29:58.539Z,48.83
2023-02-12T21:32:27.393Z,52.53
2023-02-12T21:34:57.792Z,46.05
2023-02-12T21:37:26.644Z,46.13
2023-02-12T21:39:55.521Z,44.13
2023-02-12T21:42:24.364Z,39.83
2023-02-12T21:44:53.436Z,45.73
2023-02-12T21:47:22.294Z,39.07
2023-02-12T21:49:52.108Z,35.15
2023-02-12T21:52:22.491Z,33.15
2023-02-12T21:54:51.930Z,35.25
2023-02-12T21:57:22.032Z,34.07
2023-02-12T21:59:50.902Z,33.67
2023-02-12T22:02:19.752Z,34.50
2023-02-12T22:04:49.402Z,37.03
2023-02-12T22:07:18.361Z,34.27
2023-02-12T22:09:49.221Z,34.03
2023-02-12T22:12:18.087Z,38.20
2023-02-12T22:14:47.103Z,43.97
2023-02-12T22:17:15.938Z,55.33
2023-02-12T22:19:44.829Z,49.97
2023-02-12T22:22:13.668Z,54.60
2023-02-12T22:24:42.907Z,51.23
2023-02-12T22:27:13.268Z,49.63
2023-02-12T22:29:42.114Z,44.00
2023-02-12T22:32:11.344Z,44.80
2023-02-12T22:34:40.215Z,45.10
2023-02-12T22:37:09.050Z,65.53
2023-02-12T22:39:37.958Z,66.30
2023-02-12T22:42:07.637Z,63.60
2023-02-12T22:44:38.036Z,71.70
2023-02-12T22:47:07.071Z,92.00
2023-02-12T22:49:35.905Z,81.13
2023-02-12T22:52:04.865Z,59.63
2023-02-12T22:54:33.685Z,52.57
2023-02-12T22:57:02.560Z,51.53
2023-02-12T22:59:31.294Z,47.67
2023-02-12T23:02:04.422Z,46.93
2023-02-12T23:04:33.417Z,48.60
2023-02-12T23:07:02.272Z,51.10
2023-02-12T23:09:31.293Z,49.60
2023-02-12T23:12:00.197Z,46.33
2023-02-12T23:14:29.012Z,46.07
2023-02-12T23:16:58.017Z,52.17
2023-02-12T23:19:28.327Z,64.10
2023-02-12T23:21:57.348Z,57.50
2023-02-12T23:24:26.939Z,66.50
2023-02-12T23:26:55.784Z,52.70
2023-02-12T23:29:24.860Z,48.13
2023-02-12T23:31:53.682Z,46.77
2023-02-12T23:34:22.609Z,49.10
2023-02-12T23:36:52.927Z,50.93
2023-02-12T23:39:21.815Z,54.13
2023-02-12T23:41:50.606Z,57.53
2023-02-12T23:44:19.489Z,60.40
2023-02-12T23:46:52.247Z,65.27
2023-02-12T23:49:21.296Z,67.53
2023-02-12T23:51:51.679Z,69.87
2023-02-12T23:54:20.611Z,73.10
2023-02-12T23:56:49.402Z,71.30
2023-02-12T23:59:18.211Z,65.50
